Time;durP1;ratioP1;P1;durP2;ratioP2;P2;SDS_P1;SDS_P2;PMS_P1;PMS_P2;Temp;Humidity;BMP_temperature;BMP_pressure;BME280_temperature;BME280_humidity;BME280_pressure;Samples;Min_cycle;Max_cycle;Signal;HPM_P1;HPM_P2
2023/09/10 00:00:56;;;;;;;;;;;;;;;20.56;93.84;100961.50;6132997;23;19921;-82
2023/09/10 00:03:23;;;;;;;;;;;;;;;20.52;94.00;100972.56;6132554;23;20225;-83
2023/09/10 00:05:49;;;;;;;;;;;;;;;20.54;94.40;100969.69;6132933;23;19921;-83
2023/09/10 00:08:15;;;;;;;;;;;;;;;20.58;94.35;100960.25;6132450;23;19925;-81
2023/09/10 00:10:43;;;;;;;;;;;;;;;20.57;94.50;100961.28;6131730;23;19941;-82
2023/09/10 00:13:10;;;;;;;;;;;;;;;20.55;95.02;100960.69;6131966;23;20309;-81
2023/09/10 00:15:37;;;;;;;;;;;;;;;20.53;95.46;100970.72;6133007;23;19921;-82
2023/09/10 00:18:03;;;;;;;;;;;;;;;20.52;95.68;100966.41;6132733;23;20264;-81
2023/09/10 00:20:30;;;;;;;;;;;;;;;20.54;96.19;100964.38;6131741;23;19929;-79
2023/09/10 00:22:56;;;;;;;;;;;;;;;20.56;96.57;100962.31;6131775;23;19988;-81
2023/09/10 00:25:23;;;;;;;;;;;;;;;20.51;96.96;100967.44;6131869;23;19952;-79
2023/09/10 00:27:50;;;;;;;;;;;;;;;20.56;97.05;100964.16;6132438;23;19921;-81
2023/09/10 00:30:17;;;;;;;;;;;;;;;20.53;96.91;100962.72;6132330;23;19956;-79
2023/09/10 00:32:43;;;;;;;;;;;;;;;20.52;96.87;100966.41;6132404;23;20369;-80
2023/09/10 00:35:09;;;;;;;;;;;;;;;20.48;97.23;100958.06;6133005;23;19957;-81
2023/09/10 00:37:36;;;;;;;;;;;;;;;20.44;97.47;100969.31;6132277;23;19928;-82
2023/09/10 00:40:04;;;;;;;;;;;;;;;20.37;98.16;100963.19;6132029;23;19928;-82
2023/09/10 00:42:30;;;;;;;;;;;;;;;20.32;98.59;100968.34;6132279;23;20305;-83
2023/09/10 00:44:58;;;;;;;;;;;;;;;20.30;98.73;100965.91;6133147;23;19921;-82
2023/09/10 00:47:24;;;;;;;;;;;;;;;20.26;99.39;100974.50;6132425;23;19956;-82
2023/09/10 00:49:51;;;;;;;;;;;;;;;20.18;100.00;100971.06;6132483;23;19925;-81
2023/09/10 00:52:21;;;;;;;;;;;;;;;20.19;100.00;100967.38;6133090;23;19950;-81
2023/09/10 00:54:47;;;;;;;;;;;;;;;20.20;100.00;100969.00;6132656;23;19971;-82
2023/09/10 00:57:14;;;;;;;;;;;;;;;20.21;100.00;100975.13;6131566;23;19940;-79
2023/09/10 00:59:41;;;;;;;;;;;;;;;20.15;100.00;100968.81;6131134;23;19955;-79
2023/09/10 01:02:09;;;;;;;;;;;;;;;20.06;100.00;100967.41;6131433;23;19967;-82
2023/09/10 01:04:36;;;;;;;;;;;;;;;20.08;100.00;100970.69;6131275;23;19948;-78
2023/09/10 01:07:02;;;;;;;;;;;;;;;20.09;100.00;100972.31;6131162;23;19995;-82
2023/09/10 01:09:29;;;;;;;;;;;;;;;20.06;100.00;100967.41;6131435;23;20234;-79
2023/09/10 01:11:58;;;;;;;;;;;;;;;20.01;100.00;100969.88;6131268;23;19952;-82
2023/09/10 01:14:29;;;;;;;;;;;;;;;20.00;100.00;100968.25;6132311;23;20000;-79
2023/09/10 01:16:59;;;;;;;;;;;;;;;19.95;100.00;100970.72;6131721;23;19945;-80
2023/09/10 01:19:39;;;;;;;;;;;;;;;19.95;100.00;100981.34;6131213;23;19951;-78
2023/09/10 01:22:10;;;;;;;;;;;;;;;19.92;100.00;100981.75;6131679;23;19988;-84
2023/09/10 01:24:44;;;;;;;;;;;;;;;19.92;100.00;100981.75;6136330;23;19921;-79
2023/09/10 01:27:11;;;;;;;;;;;;;;;19.90;100.00;100967.88;6131883;23;19951;-78
2023/09/10 01:29:37;;;;;;;;;;;;;;;19.90;100.00;100973.19;6131772;23;19921;-79
2023/09/10 01:32:06;;;;;;;;;;;;;;;19.86;100.00;100971.97;6131781;23;19975;-81
2023/09/10 01:34:35;;;;;;;;;;;;;;;19.84;100.00;100974.84;6134750;23;19949;-79
2023/09/10 01:37:05;;;;;;;;;;;;;;;19.73;100.00;100979.97;6131557;23;19956;-79
2023/09/10 01:39:37;;;;;;;;;;;;;;;19.68;100.00;100979.78;6131154;23;19948;-80
2023/09/10 01:42:05;;;;;;;;;;;;;;;19.69;100.00;100982.25;6134337;23;19968;-79
2023/09/10 01:44:33;;;;;;;;;;;;;;;19.68;100.00;100982.44;6132302;23;19984;-79
2023/09/10 01:47:00;;;;;;;;;;;;;;;19.68;100.00;100990.41;6132664;23;19932;-82
2023/09/10 01:49:26;;;;;;;;;;;;;;;19.64;100.00;100989.19;6132913;23;19928;-80
2023/09/10 01:51:52;;;;;;;;;;;;;;;19.59;100.00;100989.81;6132423;23;19952;-80
2023/09/10 01:54:19;;;;;;;;;;;;;;;19.52;100.00;100992.47;6130767;23;20374;-81
2023/09/10 01:56:45;;;;;;;;;;;;;;;19.52;100.00;100984.50;6133314;23;19925;-84
2023/09/10 01:59:13;;;;;;;;;;;;;;;19.52;100.00;100987.16;6132138;23;20289;-79
2023/09/10 02:01:40;;;;;;;;;;;;;;;19.50;100.00;100989.16;6131175;23;19953;-80
2023/09/10 02:04:06;;;;;;;;;;;;;;;19.50;100.00;100989.16;6130015;23;19927;-83
2023/09/10 02:06:33;;;;;;;;;;;;;;;19.50;100.00;100991.00;6130969;23;19960;-80
2023/09/10 02:08:59;;;;;;;;;;;;;;;19.46;100.00;101014.47;6130912;23;20396;-83
2023/09/10 02:11:26;;;;;;;;;;;;;;;19.42;100.00;101002.63;6129811;23;19951;-78
2023/09/10 02:13:53;;;;;;;;;;;;;;;19.41;100.00;100997.53;6135578;23;19921;-79
2023/09/10 02:16:21;;;;;;;;;;;;;;;19.42;100.00;101001.81;6134597;23;19941;-80
2023/09/10 02:18:48;;;;;;;;;;;;;;;19.41;100.00;101006.31;6131743;23;20254;-82
2023/09/10 02:21:14;;;;;;;;;;;;;;;19.42;100.00;101007.94;6130130;23;19928;-78
2023/09/10 02:23:43;;;;;;;;;;;;;;;19.40;100.00;101006.50;6130251;23;19991;-82
2023/09/10 02:26:09;;;;;;;;;;;;;;;19.39;100.00;101018.16;6128114;23;19989;-80
2023/09/10 02:28:35;;;;;;;;;;;;;;;19.39;100.00;101013.66;6129767;23;19944;-80
2023/09/10 02:31:04;;;;;;;;;;;;;;;19.36;100.00;101013.28;6130225;23;19921;-81
2023/09/10 02:33:32;;;;;;;;;;;;;;;19.34;100.00;101007.34;6128996;23;19921;-81
2023/09/10 02:35:58;;;;;;;;;;;;;;;19.37;100.00;101009.59;6129909;23;19968;-81
2023/09/10 02:38:25;;;;;;;;;;;;;;;19.36;100.00;101019.41;6130163;23;19944;-80
2023/09/10 02:40:52;;;;;;;;;;;;;;;19.34;100.00;101016.13;6129968;23;19921;-78
2023/09/10 02:43:18;;;;;;;;;;;;;;;19.37;100.00;101021.03;6129653;23;19937;-81
2023/09/10 02:45:45;;;;;;;;;;;;;;;19.36;100.00;101030.03;6128977;23;19944;-78
2023/09/10 02:48:11;;;;;;;;;;;;;;;19.37;100.00;101022.88;6129156;23;19927;-78
2023/09/10 02:50:39;;;;;;;;;;;;;;;19.37;100.00;101021.03;6121401;23;20394;-82
2023/09/10 02:53:05;;;;;;;;;;;;;;;19.34;100.00;101023.28;6125861;23;19988;-79
2023/09/10 02:55:32;;;;;;;;;;;;;;;19.34;100.00;101025.94;6128181;23;19952;-77
2023/09/10 02:57:58;;;;;;;;;;;;;;;19.30;100.00;101030.84;6127375;23;19921;-77
2023/09/10 03:00:25;;;;;;;;;;;;;;;19.29;100.00;101026.53;6131432;23;19931;-81
2023/09/10 03:02:52;;;;;;;;;;;;;;;19.27;100.00;101030.41;6133908;23;19996;-80
2023/09/10 03:05:19;;;;;;;;;;;;;;;19.26;100.00;101034.91;6127715;23;19996;-83
2023/09/10 03:07:47;;;;;;;;;;;;;;;19.26;100.00;101028.78;6127372;23;19921;-81
2023/09/10 03:10:13;;;;;;;;;;;;;;;19.21;100.00;101027.56;6127782;23;19921;-81
2023/09/10 03:12:40;;;;;;;;;;;;;;;19.18;100.00;101030.59;6127971;23;19921;-78
2023/09/10 03:15:07;;;;;;;;;;;;;;;19.13;100.00;101030.41;6128197;23;19920;-80
2023/09/10 03:17:35;;;;;;;;;;;;;;;19.16;100.00;101039.78;6127000;23;19928;-79
2023/09/10 03:20:04;;;;;;;;;;;;;;;19.14;100.00;101039.16;6127764;23;19925;-81
2023/09/10 03:22:45;;;;;;;;;;;;;;;19.10;100.00;101037.94;6130434;23;19921;-82
2023/09/10 03:25:26;;;;;;;;;;;;;;;19.04;100.00;101041.41;6125913;23;19924;-85
2023/09/10 03:28:00;;;;;;;;;;;;;;;19.02;100.00;101043.44;6128252;23;19925;-82
2023/09/10 03:30:36;;;;;;;;;;;;;;;19.01;100.00;101039.16;6127737;23;19955;-83
2023/09/10 04:06:42;;;;;;;;;;;;;;;18.70;100.00;101039.69;4580571;27;15823507;-79
2023/09/10 04:09:38;;;;;;;;;;;;;;;18.71;100.00;101031.53;5111283;28;19932;-81
2023/09/10 04:12:07;;;;;;;;;;;;;;;18.71;100.00;101031.53;5112345;28;19985;-79
2023/09/10 04:14:37;;;;;;;;;;;;;;;18.75;100.00;101035.44;5111646;28;19924;-79
2023/09/10 04:23:21;;;;;;;;;;;;;;;18.62;100.00;101031.91;5027331;28;19943;-85
2023/09/10 04:29:28;;;;;;;;;;;;;;;18.54;100.00;101040.81;5027765;28;20003;-85
2023/09/10 04:35:45;;;;;;;;;;;;;;;18.55;100.00;101031.84;4890512;29;19931;-85
2023/09/10 04:56:46;;;;;;;;;;;;;;;18.41;100.00;101043.44;4877650;29;19931;-85
2023/09/10 05:14:42;;;;;;;;;;;;;;;18.36;100.00;101056.44;4985340;28;20354;-85
2023/09/10 05:17:55;;;;;;;;;;;;;;;18.33;100.00;101055.00;5000727;28;19969;-86
2023/09/10 05:58:21;;;;;;;;;;;;;;;19.41;100.00;101062.03;4874214;29;19928;-79
2023/09/10 06:13:50;;;;;;;;;;;;;;;20.09;100.00;101062.63;4809812;29;19967;-80
2023/09/10 06:19:28;;;;;;;;;;;;;;;20.51;100.00;101071.13;5080913;23;19930;-80
2023/09/10 06:55:21;;;;;;;;;;;;;;;;;;;;;
2023/09/10 07:01:18;;;;;;;;;;;;;;;26.75;74.38;101027.06;5005988;28;20389;-79
2023/09/10 07:04:05;;;;;;;;;;;;;;;26.89;73.60;101032.03;5015896;28;19930;-79
2023/09/10 07:12:19;;;;;;;;;;;;;;;27.08;72.43;101034.09;5015490;28;19940;-80
2023/09/10 07:18:23;;;;;;;;;;;;;;;;;;;;;
2023/09/10 07:21:04;;;;;;;;;;;;;;;28.59;68.68;101035.25;4996303;28;19932;-80
2023/09/10 07:23:38;;;;;;;;;;;;;;;28.76;68.04;101037.69;5012571;28;19949;-78
2023/09/10 07:26:13;;;;;;;;;;;;;;;28.87;67.26;101028.56;5013367;28;19921;-79
2023/09/10 07:31:38;;;;;;;;;;;;;;;28.62;68.27;101048.16;5007557;28;19925;-78
2023/09/10 07:34:12;;;;;;;15.18;12.07;;;;;;;28.68;67.74;101047.09;5007870;28;19968;-78
2023/09/10 07:36:44;;;;;;;19.30;12.45;;;;;;;27.58;68.12;101042.78;5011242;28;20073;-77
2023/09/10 07:39:22;;;;;;;18.58;12.23;;;;;;;28.59;67.87;101048.69;5004858;28;20427;-80
2023/09/10 08:12:50;;;;;;;;;;;;;;;28.26;66.66;101049.94;4901687;23;19985;-82
2023/09/10 08:15:26;;;;;;;;;;;;;;;28.69;66.76;101053.31;4987190;28;20023;-83
2023/09/10 08:20:48;;;;;;;;;;;;;;;28.57;66.83;101067.00;4981091;28;20005;-81
2023/09/10 08:26:34;;;;;;;;;;;;;;;28.77;65.35;101043.91;4989838;28;19922;-83
2023/09/10 08:29:15;;;;;;;;;;;;;;;28.20;66.47;101053.66;5011559;28;19926;-83
2023/09/10 08:32:05;;;;;;;;;;;;;;;27.95;67.17;101051.66;5004665;28;19910;-84
2023/09/10 08:40:57;;;;;;;;;;;;;;;29.59;64.25;101032.06;4988909;28;19922;-84
2023/09/10 08:47:07;;;;;;;;;;;;;;;29.93;62.52;101029.53;4996050;28;19968;-83
2023/09/10 08:53:14;;;;;;;;;;;;;;;28.32;65.40;101048.09;4912084;29;20014;-81
2023/09/10 08:55:42;;;;;;;;;;;;;;;28.91;65.32;101045.81;4993703;28;19933;-82
2023/09/10 08:58:09;;;;;;;;;;;;;;;29.44;64.22;101026.69;4999426;28;19981;-80
2023/09/10 09:00:35;;;;;;;;;;;;;;;28.79;64.81;101023.69;5002873;28;19921;-82
2023/09/10 09:03:03;;;;;;;;;;;;;;;29.10;65.03;101029.13;5003329;28;19961;-82
2023/09/10 09:05:30;;;;;;;;;;;;;;;29.59;64.70;101032.06;5002593;28;19976;-83
2023/09/10 09:07:59;;;;;;;;;;;;;;;29.04;63.40;101020.22;5004863;28;19928;-83
2023/09/10 09:10:26;;;;;;;;;;;;;;;28.81;64.26;101026.13;5002323;28;20416;-83
2023/09/10 09:12:54;;;;;;;;;;;;;;;29.06;64.59;101023.47;5000423;28;19964;-82
2023/09/10 09:15:21;;;;;;;;;;;;;;;29.85;64.38;101030.09;5001237;28;20012;-82
2023/09/10 09:17:51;;;;;;;;;;;;;;;29.85;61.57;101014.72;4999470;28;20008;-80
2023/09/10 09:20:19;;;;;;;;;;;;;;;29.13;63.18;101013.22;4999616;28;20364;-79
2023/09/10 09:22:48;;;;;;;;;;;;;;;29.01;63.51;101018.06;5001200;28;20326;-84
2023/09/10 09:25:15;;;;;;;;;;;;;;;28.56;63.86;101016.13;5002632;28;19929;-82
2023/09/10 09:27:41;;;;;;;;;;;;;;;28.94;63.60;101010.25;4996978;28;20465;-81
2023/09/10 09:30:08;;;;;;;;;;;;;;;29.18;63.05;101004.34;4999997;28;20033;-82
2023/09/10 09:32:35;;;;;;;;;;;;;;;29.25;63.31;101008.38;5000745;28;19961;-79
2023/09/10 09:35:04;;;;;;;;;;;;;;;29.12;63.49;101008.91;5001609;28;19989;-83
2023/09/10 09:37:32;;;;;;;;;;;;;;;29.25;63.19;100999.50;4996679;28;20392;-84
2023/09/10 09:39:59;;;;;;;;;;;;;;;28.68;63.66;101001.34;5000428;28;20032;-82
2023/09/10 09:42:26;;;;;;;;;;;;;;;29.11;62.95;100995.72;5002046;28;20373;-83
2023/09/10 09:44:54;;;;;;;;;;;;;;;29.28;63.11;101001.66;4999888;28;19929;-83
2023/09/10 09:47:20;;;;;;;;;;;;;;;29.65;61.77;100998.63;4991344;28;20309;-84
2023/09/10 09:49:48;;;;;;;;;;;;;;;29.37;62.94;101003.50;4997466;28;20354;-82
2023/09/10 09:52:16;;;;;;;;;;;;;;;29.98;63.21;101006.06;4999990;28;19981;-83
2023/09/10 09:54:45;;;;;;;;;;;;;;;30.35;60.87;100985.94;5002371;28;19965;-82
2023/09/10 09:57:12;;;;;;;;;;;;;;;29.57;60.72;100988.41;4997374;28;20029;-83
2023/09/10 09:59:38;;;;;;;;;;;;;;;29.68;60.43;100971.13;5000410;28;19949;-85
2023/09/10 10:02:05;;;;;;;;;;;;;;;29.61;60.14;100981.38;5006282;28;19957;-84
2023/09/10 10:04:32;;;;;;;;;;;;;;;29.79;61.30;100986.16;5006081;28;19953;-83
2023/09/10 10:06:58;;;;;;;;;;;;;;;30.22;60.17;100986.56;5006119;28;19964;-84
2023/09/10 10:09:33;;;;;;;;;;;;;;;30.15;60.33;100978.75;5004164;28;19980;-84
2023/09/10 10:12:01;;;;;;;;;;;;;;;30.19;58.51;100960.13;5003020;28;19937;-84
2023/09/10 10:14:28;;;;;;;;;;;;;;;30.42;59.10;100962.13;4994201;28;20021;-84
2023/09/10 10:16:54;;;;;;;;;;;;;;;30.48;57.22;100952.09;4994491;28;19964;-82
2023/09/10 10:19:21;;;;;;;;;;;;;;;29.86;58.02;100954.31;4990948;28;20520;-83
2023/09/10 10:21:48;;;;;;;;;;;;;;;30.02;57.59;100950.50;4985891;28;20325;-84
2023/09/10 10:24:15;;;;;;;;;;;;;;;29.92;57.22;100960.47;4990206;28;19922;-84
2023/09/10 10:26:43;;;;;;;;;;;;;;;29.84;56.00;100950.25;4996168;28;19975;-83
2023/09/10 10:29:12;;;;;;;;;;;;;;;30.21;56.48;100945.25;4995979;28;20008;-85
2023/09/10 10:31:41;;;;;;;;;;;;;;;30.21;57.01;100947.97;4996782;28;19964;-81
2023/09/10 10:34:10;;;;;;;;;;;;;;;30.21;57.91;100956.06;4996976;28;20425;-83
2023/09/10 10:36:40;;;;;;;;;;;;;;;30.48;57.27;100947.50;4993029;28;20025;-84
2023/09/10 10:39:09;;;;;;;;;;;;;;;30.22;59.22;100957.69;4995174;28;19921;-84
2023/09/10 10:41:38;;;;;;;;;;;;;;;30.72;57.95;100944.13;4995850;28;19965;-84
2023/09/10 10:44:12;;;;;;;;;;;;;;;30.91;58.67;100953.94;5003607;28;19933;-84
2023/09/10 10:46:43;;;;;;;;;;;;;;;31.05;58.33;100937.88;4997492;28;19922;-84
2023/09/10 10:49:10;;;;;;;;;;;;;;;30.54;58.20;100927.47;4998283;28;19976;-84
2023/09/10 10:51:38;;;;;;;;;;;;;;;30.71;58.20;100931.72;4998217;28;19964;-84
2023/09/10 10:54:05;;;;;;;;;;;;;;;30.75;57.40;100920.03;4997039;28;19934;-83
2023/09/10 10:56:32;;;;;;;;;;;;;;;30.81;57.92;100920.78;4996907;28;20004;-84
2023/09/10 10:58:59;;;;;;;;;;;;;;;30.96;57.21;100920.66;4997703;28;20393;-83
2023/09/10 11:01:25;;;;;;;;;;;;;;;31.04;57.16;100914.66;4998437;28;19933;-83
2023/09/10 11:03:53;;;;;;;;;;;;;;;31.13;57.01;100918.38;4996452;28;20484;-84
2023/09/10 11:06:20;;;;;;;;;;;;;;;30.90;56.55;100897.47;4997754;28;20433;-85
2023/09/10 11:08:46;;;;;;;;;;;;;;;30.77;56.57;100909.75;4999177;28;20361;-86
2023/09/10 11:11:27;;;;;;;;;;;;;;;31.47;55.93;100899.31;4994323;28;19922;-86
2023/09/10 11:14:03;;;;;;;;;;;;;;;31.76;55.98;100912.78;4991647;28;19974;-85
2023/09/10 11:16:30;;;;;;;;;;;;;;;31.50;54.81;100903.34;4998051;28;20005;-84
2023/09/10 11:18:58;;;;;;;;;;;;;;;31.26;55.05;100896.03;5002187;28;19953;-83
2023/09/10 11:21:45;;;;;;;;;;;;;;;31.47;55.15;100896.63;5001389;28;20026;-83
2023/09/10 11:24:25;;;;;;;;;;;;;;;31.54;54.83;100890.88;4994338;28;19965;-83
2023/09/10 11:27:11;;;;;;;;;;;;;;;31.83;54.46;100899.69;5004635;28;20273;-83
2023/09/10 11:29:37;;;;;;;;;;;;;;;31.78;54.41;100891.66;5003607;28;19921;-83
2023/09/10 11:32:16;;;;;;;;;;;;;;;31.55;55.49;100903.28;5001218;28;20036;-80
2023/09/10 11:34:44;;;;;;;;;;;;;;;31.70;54.72;100899.59;5002563;28;19964;-83
2023/09/10 11:37:10;;;;;;;;;;;;;;;31.86;54.40;100891.00;5003986;28;19988;-83
2023/09/10 11:39:37;;;;;;;;;;;;;;;31.49;55.09;100893.63;5004105;28;19925;-83
2023/09/10 11:42:04;;;;;;;;;;;;;;;31.85;55.01;100886.69;5005069;28;19921;-84
2023/09/10 11:44:31;;;;;;;;;;;;;;;32.18;55.14;100894.88;5000614;28;19968;-84
2023/09/10 11:46:57;;;;;;;;;;;;;;;32.30;54.48;100892.56;5001813;28;19922;-84
2023/09/10 11:49:24;;;;;;;;;;;;;;;32.15;55.09;100890.03;5002718;28;19921;-84
2023/09/10 11:51:53;;;;;;;;;;;;;;;32.19;54.65;100894.56;4997928;28;20001;-81
2023/09/10 11:54:20;;;;;;;;;;;;;;;32.06;54.22;100889.13;5001249;28;19921;-82
2023/09/10 11:56:47;;;;;;;;;;;;;;;31.90;54.10;100878.50;4999640;28;19948;-83
2023/09/10 11:59:14;;;;;;;;;;;;;;;32.11;53.95;100878.22;4995722;28;20012;-83
2023/09/10 12:01:40;;;;;;;;;;;;;;;32.18;54.04;100884.84;5003614;28;19979;-82
2023/09/10 12:04:07;;;;;;;;;;;;;;;32.26;54.16;100895.03;5005115;28;19961;-84
2023/09/10 12:06:33;;;;;;;;;;;;;;;32.34;53.54;100885.44;5000438;28;19969;-82
2023/09/10 12:09:01;;;;;;;;;;;;;;;32.42;53.42;100875.84;4998677;28;19937;-79
2023/09/10 12:11:28;;;;;;;;;;;;;;;32.37;53.96;100886.75;4996429;28;19968;-82
2023/09/10 12:13:55;;;;;;;;;;;;;;;32.26;53.90;100872.56;4993808;28;19953;-80
2023/09/10 12:16:23;;;;;;;;;;;;;;;32.14;53.52;100873.00;5000176;28;20044;-83
2023/09/10 12:18:50;;;;;;;;;;;;;;;31.84;54.28;100866.13;5002872;28;19921;-82
2023/09/10 12:21:18;;;;;;;;;;;;;;;31.94;54.36;100868.69;4997358;28;19926;-82
2023/09/10 12:23:45;;;;;;;;;;;;;;;32.03;53.66;100868.03;5004682;28;19953;-83
2023/09/10 12:26:13;;;;;;;;;;;;;;;32.32;53.51;100868.69;5003728;28;19922;-83
2023/09/10 12:28:40;;;;;;;;;;;;;;;32.56;54.47;100860.44;4996591;28;20366;-83
2023/09/10 12:31:06;;;;;;;;;;;;;;;32.41;53.27;100858.78;5008642;28;19929;-82
2023/09/10 12:33:33;;;;;;;;;;;;;;;32.65;53.12;100855.94;5008321;28;19933;-83
2023/09/10 12:35:59;;;;;;;;;;;;;;;32.73;53.42;100857.16;5014650;28;19967;-84
2023/09/10 12:38:27;;;;;;;;;;;;;;;32.71;53.12;100846.63;5016957;28;19929;-83
2023/09/10 12:40:54;;;;;;;;;;;;;;;32.59;54.03;100847.13;4998084;28;19964;-83
2023/09/10 12:43:22;;;;;;;;;;;;;;;32.61;53.80;100855.72;5000121;28;19954;-82
2023/09/10 12:45:48;;;;;;;;;;;;;;;32.48;54.70;100864.63;4992769;28;20343;-83
2023/09/10 12:48:16;;;;;;;;;;;;;;;32.50;54.87;100859.72;4991916;28;19929;-82
2023/09/10 12:50:47;;;;;;;;;;;;;;;32.57;54.05;100851.22;4998391;28;20005;-82
2023/09/10 12:53:13;;;;;;;;;;;;;;;32.47;53.67;100849.50;4991142;28;20349;-83
2023/09/10 12:55:40;;;;;;;;;;;;;;;32.54;53.34;100840.97;4999202;28;19985;-83
2023/09/10 12:58:07;;;;;;;;;;;;;;;32.47;53.69;100832.44;4993732;28;19925;-81
2023/09/10 13:00:35;;;;;;;;;;;;;;;32.48;53.81;100834.03;5001782;28;19971;-82
2023/09/10 13:03:01;;;;;;;;;;;;;;;32.69;53.72;100829.84;4999976;28;20013;-83
2023/09/10 13:05:28;;;;;;;;;;;;;;;32.79;53.80;100823.47;4992498;28;19922;-81
2023/09/10 13:07:54;;;;;;;;;;;;;;;32.26;53.34;100823.84;5000993;28;19926;-82
2023/09/10 13:10:21;;;;;;;;;;;;;;;32.69;53.60;100831.75;5000458;28;20301;-83
2023/09/10 13:12:47;;;;;;;;;;;;;;;32.34;53.63;100825.88;5001255;28;20000;-83
2023/09/10 13:15:15;;;;;;;;;;;;;;;32.48;52.31;100813.19;5002754;28;19960;-82
2023/09/10 13:17:42;;;;;;;;;;;;;;;32.12;53.42;100809.44;5003294;28;19921;-83
2023/09/10 13:20:09;;;;;;;;;;;;;;;31.95;53.63;100820.78;5002593;28;19968;-83
2023/09/10 13:22:36;;;;;;;;;;;;;;;32.20;53.67;100825.78;4999010;28;20017;-81
2023/09/10 13:25:02;;;;;;;;;;;;;;;32.03;53.82;100811.22;4992230;28;19921;-82
2023/09/10 13:27:29;;;;;;;;;;;;;;;32.47;53.80;100817.00;4993207;28;19969;-82
2023/09/10 13:29:55;;;;;;;;;;;;;;;32.58;52.83;100802.16;4999056;28;19922;-81
2023/09/10 13:32:22;;;;;;;;;;;;;;;32.30;52.59;100803.19;5000010;28;19948;-84
2023/09/10 13:34:50;;;;;;;;;;;;;;;32.48;52.39;100806.97;5005623;28;19928;-83
2023/09/10 13:37:17;;;;;;;;;;;;;;;32.06;53.88;100805.19;5004584;28;19925;-81
2023/09/10 13:39:43;;;;;;;;;;;;;;;31.99;53.24;100800.97;5003425;28;19957;-81
2023/09/10 13:42:09;;;;;;;;;;;;;;;31.85;54.33;100810.13;5003135;28;20017;-80
2023/09/10 13:44:36;;;;;;;;;;;;;;;31.75;54.15;100805.66;5001128;28;19957;-81
2023/09/10 13:47:02;;;;;;;;;;;;;;;31.73;53.78;100801.63;5002181;28;19965;-85
2023/09/10 13:49:29;;;;;;;;;;;;;;;31.96;53.69;100798.84;5003379;28;20301;-84
2023/09/10 13:51:57;;;;;;;;;;;;;;;31.73;54.20;100802.44;5006614;28;19964;-84
2023/09/10 13:54:23;;;;;;;;;;;;;;;31.83;54.19;100796.88;5006249;28;19969;-82
2023/09/10 13:56:50;;;;;;;;;;;;;;;31.81;54.05;100790.97;5005407;28;19976;-82
2023/09/10 13:59:16;;;;;;;;;;;;;;;31.82;54.36;100800.69;5005718;28;19979;-84
2023/09/10 14:01:43;;;;;;;;;;;;;;;31.83;54.80;100804.19;5006153;28;20365;-84
2023/09/10 14:04:09;;;;;;;;;;;;;;;32.04;54.06;100791.97;5005891;28;19984;-84
2023/09/10 14:06:35;;;;;;;;;;;;;;;32.15;53.56;100782.56;5004708;28;20020;-83
2023/09/10 14:09:04;;;;;;;;;;;;;;;32.15;53.41;100787.97;5005595;28;20341;-84
2023/09/10 14:11:30;;;;;;;;;;;;;;;31.94;53.42;100792.91;4998438;28;20001;-82
2023/09/10 14:13:56;;;;;;;;;;;;;;;32.04;54.22;100799.28;5004124;28;19949;-82
2023/09/10 14:16:23;;;;;;;;;;;;;;;31.84;53.76;100786.84;5005512;28;19983;-83
2023/09/10 14:18:49;;;;;;;;;;;;;;;31.72;54.42;100787.31;5002992;28;19922;-81
2023/09/10 14:21:17;;;;;;;;;;;;;;;31.53;54.23;100786.47;5006427;28;20373;-80
2023/09/10 14:23:44;;;;;;;;;;;;;;;31.69;54.04;100779.78;5007040;28;19937;-82
2023/09/10 14:26:11;;;;;;;;;;;;;;;31.70;53.93;100784.09;5004310;28;19965;-82
2023/09/10 14:28:38;;;;;;;;;;;;;;;31.86;54.58;100785.47;5004260;28;19932;-81
2023/09/10 14:31:04;;;;;;;;;;;;;;;31.90;53.60;100775.66;5006265;28;19984;-83
2023/09/10 14:33:31;;;;;;;;;;;;;;;31.78;52.57;100761.78;5006590;28;19929;-83
2023/09/10 14:35:57;;;;;;;;;;;;;;;31.78;53.06;100761.78;5004080;28;19921;-82
2023/09/10 14:38:24;;;;;;;;;;;;;;;31.80;52.99;100770.41;5005303;28;20017;-83
2023/09/10 14:40:50;;;;;;;;;;;;;;;31.93;53.55;100771.56;5004851;28;19992;-82
2023/09/10 14:43:18;;;;;;;;;;;;;;;32.00;54.47;100777.41;5004550;28;20017;-84
2023/09/10 14:45:45;;;;;;;;;;;;;;;31.83;55.12;100780.66;5002372;28;19922;-81
2023/09/10 14:48:11;;;;;;;;;;;;;;;31.72;55.09;100790.00;5000763;28;20422;-80
2023/09/10 14:50:39;;;;;;;;;;;;;;;31.70;55.07;100781.38;5001966;28;19932;-84
2023/09/10 14:53:05;;;;;;;;;;;;;;;31.52;55.38;100785.69;5004189;28;19989;-83
2023/09/10 14:55:31;;;;;;;;;;;;;;;31.56;55.25;100792.13;5002048;28;19921;-83
2023/09/10 14:57:58;;;;;;;;;;;;;;;31.72;54.78;100773.78;5003268;28;19933;-80
2023/09/10 15:00:26;;;;;;;;;;;;;;;31.77;54.59;100776.41;5002298;28;19925;-80
2023/09/10 15:02:52;;;;;;;;;;;;;;;31.70;54.89;100781.38;5002719;28;19968;-81
2023/09/10 15:05:19;;;;;;;;;;;;;;;31.65;55.65;100784.97;5002581;28;19957;-82
2023/09/10 15:07:45;;;;;;;;;;;;;;;31.45;55.58;100784.44;5004882;28;20036;-81
2023/09/10 15:10:11;;;;;;;;;;;;;;;31.47;55.54;100783.03;5001543;28;19969;-80
2023/09/10 15:12:38;;;;;;;;;;;;;;;31.48;55.56;100779.25;5003372;28;19921;-80
2023/09/10 15:15:05;;;;;;;;;;;;;;;31.46;55.30;100777.94;5002256;28;19960;-82
2023/09/10 15:17:32;;;;;;;;;;;;;;;31.45;55.41;100785.22;5005597;28;19922;-80
2023/09/10 15:19:59;;;;;;;;;;;;;;;31.45;56.16;100789.84;5001927;28;20052;-81
2023/09/10 15:22:25;;;;;;;;;;;;;;;31.46;55.78;100778.72;5000845;28;19973;-81
2023/09/10 15:24:52;;;;;;;;;;;;;;;31.50;56.21;100781.66;5004385;28;19980;-82
2023/09/10 15:27:18;;;;;;;;;;;;;;;31.30;56.38;100772.72;5004768;28;19922;-81
2023/09/10 15:29:45;;;;;;;;;;;;;;;31.15;56.42;100772.94;5003780;28;19986;-80
2023/09/10 15:32:11;;;;;;;;;;;;;;;31.04;57.03;100774.13;5003214;28;19965;-83
2023/09/10 15:34:39;;;;;;;;;;;;;;;30.96;57.06;100766.63;5005443;28;19949;-81
2023/09/10 15:37:05;;;;;;;;;;;;;;;31.00;57.54;100771.19;5005712;28;20361;-82
2023/09/10 15:39:31;;;;;;;;;;;;;;;31.04;56.66;100757.91;5005672;28;19961;-81
2023/09/10 15:41:58;;;;;;;;;;;;;;;31.14;56.12;100757.00;5002467;28;20015;-81
2023/09/10 15:44:25;;;;;;;;;;;;;;;31.07;56.23;100751.13;5000431;28;19980;-82
2023/09/10 15:46:51;;;;;;;;;;;;;;;31.08;56.38;100750.81;5001549;28;19940;-82
2023/09/10 15:49:18;;;;;;;;;;;;;;;31.18;56.48;100760.75;5000538;28;19961;-83
2023/09/10 15:51:46;;;;;;;;;;;;;;;31.22;56.24;100754.44;5001262;28;19992;-82
2023/09/10 15:54:13;;;;;;;;;;;;;;;31.19;56.33;100756.94;5000110;28;20380;-81
2023/09/10 15:56:39;;;;;;;;;;;;;;;31.19;56.69;100752.34;5000168;28;19965;-81
2023/09/10 15:59:05;;;;;;;;;;;;;;;31.08;55.95;100747.31;5003791;28;19928;-83
2023/09/10 16:01:32;;;;;;;;;;;;;;;31.02;56.53;100749.28;5005371;28;19993;-82
2023/09/10 16:03:58;;;;;;;;;;;;;;;30.84;56.73;100747.31;5004529;28;19922;-83
2023/09/10 16:06:25;;;;;;;;;;;;;;;30.79;56.87;100747.38;5004922;28;19921;-83
2023/09/10 16:08:52;;;;;;;;;;;;;;;30.77;56.53;100752.25;5004593;28;20020;-81
2023/09/10 16:11:19;;;;;;;;;;;;;;;30.79;56.12;100740.09;4999908;28;19972;-82
2023/09/10 16:13:45;;;;;;;;;;;;;;;30.78;55.50;100734.97;5000030;28;19932;-82
2023/09/10 16:16:12;;;;;;;;;;;;;;;30.79;55.51;100731.16;5000367;28;20413;-82
2023/09/10 16:18:38;;;;;;;;;;;;;;;30.75;55.48;100741.75;5002161;28;19972;-82
2023/09/10 16:21:05;;;;;;;;;;;;;;;30.72;55.17;100733.44;5000228;28;19933;-82
2023/09/10 16:23:33;;;;;;;;;;;;;;;30.64;56.07;100741.09;4997775;28;19976;-82
2023/09/10 16:26:01;;;;;;;;;;;;;;;30.65;56.16;100742.69;5000568;28;19928;-81
2023/09/10 16:28:27;;;;;;;;;;;;;;;30.49;56.20;100732.28;5004390;28;19968;-82
2023/09/10 16:30:54;;;;;;;;;;;;;;;30.45;56.26;100729.38;5004014;28;19965;-82
2023/09/10 16:33:20;;;;;;;;;;;;;;;30.54;56.37;100733.06;5002233;28;19922;-82
2023/09/10 16:35:46;;;;;;;;;;;;;;;30.55;56.82;100734.66;5000710;28;20446;-81